Time;durP1;ratioP1;P1;durP2;ratioP2;P2;SDS_P1;SDS_P2;PMS_P1;PMS_P2;Temp;Humidity;BMP_temperature;BMP_pressure;BME280_temperature;BME280_humidity;BME280_pressure;Samples;Min_cycle;Max_cycle;Signal;HPM_P1;HPM_P2
2021/10/27 00:02:10;;;;;;;;;0.00;0.00;;;;;12.61;70.23;102101.44;5081974;28;45282;-76
2021/10/27 00:04:36;;;;;;;;;0.00;0.00;;;;;12.73;70.42;102116.50;5064846;28;45426;-76
2021/10/27 00:07:02;;;;;;;;;0.00;0.00;;;;;12.79;70.37;102121.88;5083209;28;45270;-76
2021/10/27 00:09:28;;;;;;;;;0.00;0.00;;;;;12.80;70.24;102114.06;5082882;28;45373;-76
2021/10/27 00:11:54;;;;;;;;;0.00;0.00;;;;;12.66;70.40;102086.75;5082944;28;45208;-76
2021/10/27 00:14:20;;;;;;;;;0.00;0.00;;;;;12.95;70.35;102145.72;5063680;28;45313;-76
2021/10/27 00:16:45;;;;;;;;;0.00;0.00;;;;;12.75;70.50;102128.78;5064898;28;45241;-76
2021/10/27 00:19:11;;;;;;;;;0.00;0.00;;;;;12.53;70.39;102089.09;5064536;28;47375;-76
2021/10/27 00:21:36;;;;;;;;;0.00;0.00;;;;;12.74;70.19;102126.97;5064417;28;45376;-76
2021/10/27 00:24:04;;;;;;;;;0.00;0.00;;;;;12.51;70.32;102087.28;5081547;28;45279;-76
2021/10/27 00:26:30;;;;;;;;;0.00;0.00;;;;;12.57;70.36;102110.94;5064802;28;45334;-76
2021/10/27 00:28:55;;;;;;;;;0.00;0.00;;;;;12.48;70.42;102093.34;5082183;27;45462;-76
2021/10/27 00:31:25;;;;;;;;;0.00;0.00;;;;;12.89;70.34;102162.13;5101546;27;45295;-76
2021/10/27 00:33:50;;;;;;;;;0.00;0.00;;;;;12.70;70.16;102126.88;5083070;28;45219;-76
2021/10/27 00:36:16;;;;;;;;;0.00;0.00;;;;;12.89;70.32;102160.41;5055871;28;45514;-76
2021/10/27 00:38:45;;;;;;;;;0.00;0.00;;;;;12.50;70.42;102089.00;5063674;28;46222;-76
2021/10/27 00:41:10;;;;;;;;;0.00;0.00;;;;;12.71;70.55;102129.53;5082869;28;45345;-76
2021/10/27 00:43:37;;;;;;;;;0.00;0.00;;;;;12.63;70.18;102111.09;5064624;28;45576;-76
2021/10/27 00:46:04;;;;;;;;;0.00;0.00;;;;;12.79;70.34;102142.78;5064662;28;45259;-76
2021/10/27 00:48:29;;;;;;;;;1.50;0.00;;;;;12.58;70.38;102096.13;5064172;28;47261;-76
2021/10/27 00:50:55;;;;;;;;;1.00;1.00;;;;;12.46;70.29;102081.09;5080952;28;45196;-76
2021/10/27 00:53:20;;;;;;;;;0.00;0.00;;;;;12.59;70.45;102106.63;5064247;28;45257;-76
2021/10/27 00:55:47;;;;;;;;;0.00;0.00;;;;;12.96;70.42;102174.53;5064624;28;45172;-76
2021/10/27 00:58:15;;;;;;;;;0.00;0.00;;;;;12.63;70.19;102118.03;5063856;28;46337;-76
2021/10/27 01:00:42;;;;;;;;;0.00;0.00;;;;;12.95;70.15;102169.25;5064047;28;45267;-76
2021/10/27 01:03:07;;;;;;;;;0.00;0.00;;;;;12.62;70.44;102106.69;5064053;28;45269;-76
2021/10/27 01:05:33;;;;;;;;;0.00;0.00;;;;;13.03;70.21;102160.72;5063967;28;45445;-76
2021/10/27 01:07:59;;;;;;;;;0.00;0.00;;;;;12.68;69.94;102098.09;5080850;28;47571;-76
2021/10/27 01:10:24;;;;;;;;;0.00;0.00;;;;;12.68;70.04;102090.25;5063818;28;45348;-76
2021/10/27 01:12:50;;;;;;;;;0.00;0.00;;;;;12.62;70.01;102075.34;5064173;28;45371;-76
2021/10/27 01:15:16;;;;;;;;;0.00;0.00;;;;;12.83;70.09;102108.00;5063998;28;45260;-76
2021/10/27 01:17:41;;;;;;;;;0.00;0.00;;;;;12.82;70.03;102105.34;5063825;28;48036;-76
2021/10/27 01:20:07;;;;;;;;;0.00;0.00;;;;;12.80;69.86;102103.59;5063739;28;45525;-76
2021/10/27 01:22:38;;;;;;;;;0.00;0.00;;;;;12.66;70.21;102074.59;5081025;28;45299;-76
2021/10/27 01:25:08;;;;;;;;;0.00;0.00;;;;;12.89;70.05;102122.94;5064314;28;45576;-76
2021/10/27 01:27:39;;;;;;;;;0.00;0.00;;;;;12.99;70.05;102139.72;5083828;28;45459;-77
2021/10/27 01:30:09;;;;;;;;;0.00;0.00;;;;;12.83;70.42;102121.06;5084007;28;45360;-76
2021/10/27 01:32:38;;;;;;;;;0.75;0.00;;;;;12.71;69.86;102095.56;5067138;28;45330;-76
2021/10/27 01:35:06;;;;;;;;;0.00;0.00;;;;;12.70;70.16;102093.81;5067091;28;45563;-76
2021/10/27 01:37:33;;;;;;;;;0.00;0.00;;;;;12.64;69.78;102078.00;5067001;28;48496;-76
2021/10/27 01:40:02;;;;;;;;;0.00;0.00;;;;;12.98;69.61;102137.94;5066780;28;45946;-77
2021/10/27 01:42:27;;;;;;;;;0.00;0.00;;;;;12.88;69.66;102121.19;5067435;28;45278;-76
2021/10/27 01:44:53;;;;;;;;;0.00;0.00;;;;;12.93;69.87;102133.50;5084080;28;45303;-76
2021/10/27 01:47:19;;;;;;;;;0.00;0.00;;;;;12.90;70.25;102127.34;5066746;28;45411;-76
2021/10/27 01:49:45;;;;;;;;;0.00;0.00;;;;;12.61;69.84;102078.81;5083798;28;45342;-77
2021/10/27 01:52:11;;;;;;;;;0.00;0.00;;;;;12.63;69.96;102078.84;5066477;28;45373;-76
2021/10/27 01:54:36;;;;;;;;;0.00;0.00;;;;;12.90;69.95;102128.19;5067218;28;45652;-76
2021/10/27 01:57:02;;;;;;;;;0.00;0.00;;;;;12.84;70.03;102111.50;5067031;28;45647;-76
2021/10/27 01:59:28;;;;;;;;;0.00;0.00;;;;;12.77;69.89;102098.31;5066929;28;45381;-76
2021/10/27 02:01:53;;;;;;;;;0.00;0.00;;;;;12.63;69.84;102084.06;5085375;28;45365;-76
2021/10/27 02:04:20;;;;;;;;;0.00;0.00;;;;;12.58;69.75;102073.53;5085580;28;45334;-76
2021/10/27 02:06:46;;;;;;;;;0.00;0.00;;;;;12.56;69.83;102064.78;5084844;28;46613;-76
2021/10/27 02:09:12;;;;;;;;;0.75;0.00;;;;;12.66;69.90;102085.03;5084895;28;45378;-76
2021/10/27 02:11:37;;;;;;;;;0.00;0.00;;;;;12.67;69.66;102078.06;5085173;28;45312;-76
2021/10/27 02:14:03;;;;;;;;;0.00;0.00;;;;;12.72;69.80;102086.00;5083942;28;45327;-76
2021/10/27 02:16:28;;;;;;;;;1.00;0.00;;;;;12.85;70.11;102105.44;5084844;28;46973;-76
2021/10/27 02:18:54;;;;;;;;;0.00;0.00;;;;;12.90;69.59;102117.75;5066512;28;45466;-76
2021/10/27 02:21:20;;;;;;;;;0.00;0.00;;;;;12.63;69.98;102068.41;5066515;28;45338;-76
2021/10/27 02:23:48;;;;;;;;;0.00;0.00;;;;;12.57;69.55;102061.31;5085132;28;45286;-76
2021/10/27 02:26:14;;;;;;;;;0.00;0.00;;;;;12.36;69.99;102046.94;5066321;28;45680;-77
2021/10/27 02:28:39;;;;;;;;;0.00;0.00;;;;;12.41;69.62;102066.19;5066300;28;46109;-76
2021/10/27 02:31:05;;;;;;;;;0.75;0.00;;;;;12.73;69.88;102122.63;5066616;28;45368;-76
2021/10/27 02:33:30;;;;;;;;;0.00;0.00;;;;;12.42;70.45;102072.31;5081222;28;45584;-76
2021/10/27 02:35:56;;;;;;;;;0.00;0.00;;;;;12.33;70.13;102061.63;5066124;28;48041;-76
2021/10/27 02:38:21;;;;;;;;;0.00;0.00;;;;;12.60;70.12;102091.84;5083730;28;45425;-76
2021/10/27 02:40:47;;;;;;;;;0.00;0.00;;;;;12.26;70.24;102029.31;5066563;28;45451;-76
2021/10/27 02:43:13;;;;;;;;;0.00;0.00;;;;;12.32;70.00;102037.28;5085014;28;45288;-76
2021/10/27 02:45:39;;;;;;;;;1.50;0.00;;;;;12.64;69.97;102094.56;5084550;28;45516;-76
2021/10/27 02:48:05;;;;;;;;;0.00;0.00;;;;;12.49;70.45;102071.59;5083255;28;45459;-76
2021/10/27 02:50:30;;;;;;;;;0.00;0.00;;;;;12.76;70.35;102125.31;5084562;28;45219;-76
2021/10/27 02:52:56;;;;;;;;;0.00;0.00;;;;;12.50;70.48;102067.25;5083499;28;45277;-76
2021/10/27 02:55:21;;;;;;;;;0.00;0.00;;;;;12.58;70.05;102080.47;5066008;28;47127;-76
2021/10/27 02:57:46;;;;;;;;;0.00;0.00;;;;;12.56;70.06;102071.72;5083056;28;45219;-76
2021/10/27 03:00:12;;;;;;;;;0.00;0.00;;;;;12.58;70.07;102088.31;5084596;28;45157;-76
2021/10/27 03:02:38;;;;;;;;;0.00;0.00;;;;;12.40;70.00;102059.22;5084749;28;45449;-76
2021/10/27 03:05:06;;;;;;;;;0.00;0.00;;;;;12.47;69.97;102064.56;5082596;28;47870;-76
2021/10/27 03:07:31;;;;;;;;;0.00;0.00;;;;;12.44;70.06;102057.56;5066006;28;45316;-76
2021/10/27 03:09:56;;;;;;;;;0.00;0.00;;;;;12.54;70.34;102077.81;5065887;28;45317;-76
2021/10/27 03:12:23;;;;;;;;;1.00;0.00;;;;;12.51;70.04;102069.00;5061287;28;45570;-76
2021/10/27 03:14:48;;;;;;;;;0.00;0.00;;;;;12.34;70.30;102026.88;5082599;28;45431;-76
2021/10/27 03:17:17;;;;;;;;;0.00;0.00;;;;;12.50;70.36;102057.69;5082587;28;45314;-76
2021/10/27 03:19:43;;;;;;;;;0.00;0.00;;;;;12.41;70.18;102044.44;5082414;28;45408;-76
2021/10/27 03:22:08;;;;;;;;;0.00;0.00;;;;;12.70;69.92;102082.47;5065503;28;45584;-76
2021/10/27 03:24:34;;;;;;;;;0.00;0.00;;;;;12.59;69.89;102064.81;5083357;28;46395;-77
2021/10/27 03:27:00;;;;;;;;;0.00;0.00;;;;;12.62;70.04;102064.03;5083623;28;45377;-77
2021/10/27 03:29:25;;;;;;;;;0.00;0.00;;;;;12.65;70.35;102074.56;5083366;28;45368;-77
2021/10/27 03:31:51;;;;;;;;;0.00;0.00;;;;;12.50;69.97;102048.97;5082430;28;45496;-77
2021/10/27 03:34:16;;;;;;;;;0.00;0.00;;;;;12.79;70.27;102100.97;5082032;28;48346;-77
2021/10/27 03:36:42;;;;;;;;;0.00;0.00;;;;;12.78;70.11;102093.97;5083226;28;45349;-77
2021/10/27 03:39:07;;;;;;;;;0.00;0.00;;;;;12.71;70.29;102092.94;5083577;28;45228;-77
2021/10/27 03:41:33;;;;;;;;;0.00;0.00;;;;;12.51;70.22;102056.84;5082289;28;45564;-77
2021/10/27 03:43:58;;;;;;;;;0.00;0.00;;;;;12.53;70.59;102057.75;5065159;28;46722;-77
2021/10/27 03:46:24;;;;;;;;;0.00;0.00;;;;;12.60;70.62;102060.50;5083285;28;45281;-77
2021/10/27 03:48:49;;;;;;;;;1.00;0.00;;;;;12.54;70.11;102062.13;5083627;28;45274;-77
2021/10/27 03:51:14;;;;;;;;;0.00;0.00;;;;;12.74;70.00;102100.84;5083660;28;45298;-77
2021/10/27 03:53:41;;;;;;;;;0.00;0.00;;;;;12.46;70.14;102049.75;5081899;28;47517;-77
2021/10/27 03:56:06;;;;;;;;;0.75;0.75;;;;;12.36;70.40;102030.38;5064840;28;45890;-77
2021/10/27 03:58:33;;;;;;;;;0.00;0.00;;;;;12.47;70.52;102052.38;5064981;28;45334;-77
2021/10/27 04:01:02;;;;;;;;;0.00;0.00;;;;;12.64;70.27;102086.72;5065125;28;45343;-77
2021/10/27 04:03:27;;;;;;;;;0.50;0.00;;;;;12.73;70.57;102099.09;5082918;28;46288;-76
2021/10/27 04:05:53;;;;;;;;;0.00;0.00;;;;;12.73;70.29;102095.59;5082642;28;45258;-76
2021/10/27 04:08:19;;;;;;;;;0.00;0.00;;;;;12.38;70.46;102041.75;5083342;28;45227;-76
2021/10/27 04:10:45;;;;;;;;;0.00;0.00;;;;;12.45;70.44;102054.09;5081734;28;45500;-76
2021/10/27 04:13:16;;;;;;;;;0.00;0.00;;;;;12.67;70.50;102098.97;5082911;28;45495;-76
2021/10/27 04:15:42;;;;;;;;;0.00;0.00;;;;;12.46;70.59;102062.81;5064243;28;45355;-77
2021/10/27 04:18:11;;;;;;;;;0.50;0.50;;;;;12.63;70.81;102095.41;5083030;28;45338;-76
2021/10/27 04:20:37;;;;;;;;;0.25;0.25;;;;;12.25;70.35;102043.22;5064618;28;45542;-76
2021/10/27 04:23:03;;;;;;;;;0.00;0.00;;;;;12.31;70.72;102071.19;5082756;28;45255;-77
2021/10/27 04:25:29;;;;;;;;;0.00;0.00;;;;;12.45;70.71;102098.50;5082261;28;45363;-76
2021/10/27 04:27:54;;;;;;;;;0.50;0.00;;;;;11.99;70.42;102023.47;5082760;28;45308;-77
2021/10/27 04:30:20;;;;;;;;;0.00;0.00;;;;;12.11;70.91;102054.22;5080763;28;45667;-77
2021/10/27 04:32:45;;;;;;;;;0.00;0.00;;;;;12.31;70.77;102099.91;5077963;28;47476;-77
2021/10/27 04:35:11;;;;;;;;;0.25;0.25;;;;;11.84;70.74;102026.59;5063753;28;45286;-76
2021/10/27 04:37:41;;;;;;;;;0.00;0.00;;;;;12.30;70.73;102106.84;5063590;28;45337;-77
2021/10/27 04:40:09;;;;;;;;;1.00;1.00;;;;;11.78;70.79;102036.88;5081056;28;45360;-76
2021/10/27 04:42:35;;;;;;;;;0.00;0.00;;;;;12.28;70.85;102121.59;5081383;28;46827;-76
2021/10/27 04:45:01;;;;;;;;;0.75;0.00;;;;;12.00;71.20;102085.25;5064207;28;45328;-76
2021/10/27 04:47:26;;;;;;;;;0.00;0.00;;;;;11.88;70.91;102062.34;5081124;28;45276;-76
2021/10/27 04:49:52;;;;;;;;;0.00;0.00;;;;;11.94;71.06;102065.97;5081482;28;45429;-76
2021/10/27 04:52:20;;;;;;;;;0.75;0.75;;;;;12.22;70.84;102116.25;5081780;28;45331;-76
2021/10/27 04:54:46;;;;;;;;;0.00;0.00;;;;;12.02;71.35;102074.84;5082257;28;45301;-77
2021/10/27 04:57:11;;;;;;;;;0.00;0.00;;;;;12.15;71.02;102100.44;5082265;28;45711;-76
2021/10/27 04:59:43;;;;;;;;;0.00;0.00;;;;;11.93;71.06;102067.66;5064596;28;45477;-77
2021/10/27 05:02:09;;;;;;;;;0.00;0.00;;;;;12.11;71.10;102101.22;5085269;28;45300;-75
2021/10/27 05:04:35;;;;;;;;;0.00;0.00;;;;;11.90;71.28;102072.81;5067127;28;45269;-75
2021/10/27 05:07:01;;;;;;;;;0.00;0.00;;;;;12.09;71.09;102089.84;5085485;28;45425;-76
2021/10/27 05:09:27;;;;;;;;;0.00;0.00;;;;;11.72;71.05;102032.38;5085734;28;45209;-75
2021/10/27 05:11:53;;;;;;;;;0.25;0.00;;;;;12.16;71.09;102117.84;5085538;28;45600;-75
2021/10/27 05:14:18;;;;;;;;;0.50;0.00;;;;;11.87;71.04;102049.25;5066804;28;45368;-75
2021/10/27 05:16:43;;;;;;;;;0.75;0.00;;;;;11.57;70.97;102009.41;5066533;28;45602;-75
2021/10/27 05:19:09;;;;;;;;;0.00;0.00;;;;;11.98;70.86;102076.47;5085514;28;45286;-75
2021/10/27 05:21:34;;;;;;;;;0.00;0.00;;;;;11.98;70.98;102081.69;5066649;28;47982;-75
2021/10/27 05:23:59;;;;;;;;;0.50;0.50;;;;;12.12;71.15;102109.91;5084933;28;45362;-75
2021/10/27 05:26:25;;;;;;;;;0.00;0.00;;;;;11.93;70.89;102082.44;5085325;28;45352;-76
2021/10/27 05:28:50;;;;;;;;;0.00;0.00;;;;;11.94;70.94;102079.88;5084114;28;45429;-75
2021/10/27 05:31:16;;;;;;;;;0.75;0.00;;;;;11.97;71.00;102094.75;5085182;28;45329;-76
2021/10/27 05:33:41;;;;;;;;;1.75;0.00;;;;;12.03;71.16;102114.03;5084815;28;45303;-76
2021/10/27 05:36:07;;;;;;;;;0.50;0.00;;;;;11.91;71.15;102096.34;5084503;28;45505;-76
2021/10/27 05:38:33;;;;;;;;;0.00;0.00;;;;;11.98;70.97;102097.34;5083666;28;45619;-76
2021/10/27 05:40:58;;;;;;;;;0.50;0.25;;;;;11.75;71.31;102061.16;5084689;28;46660;-76
2021/10/27 05:43:25;;;;;;;;;0.50;0.00;;;;;11.94;71.28;102103.34;5066154;28;45298;-76
2021/10/27 05:45:53;;;;;;;;;0.75;0.00;;;;;11.77;71.41;102077.72;5084952;28;45245;-75
2021/10/27 05:48:20;;;;;;;;;0.50;0.00;;;;;11.81;70.95;102088.22;5083418;28;45480;-76
2021/10/27 05:50:56;;;;;;;;;0.00;0.00;;;;;11.85;71.06;102093.56;5084080;28;46027;-75
2021/10/27 05:56:09;;;;;;;;;0.75;0.25;;;;;11.70;71.13;102057.53;5084290;28;45444;-75
2021/10/27 05:58:34;;;;;;;;;0.00;0.00;;;;;11.65;71.30;102052.22;5085015;28;45181;-75
2021/10/27 06:01:00;;;;;;;;;1.00;0.75;;;;;11.46;71.21;102023.91;5084879;28;45478;-77
2021/10/27 06:03:25;;;;;;;;;0.00;0.00;;;;;11.90;71.27;102101.50;5066718;28;45379;-76
2021/10/27 06:05:51;;;;;;;;;0.00;0.00;;;;;11.57;71.39;102048.53;5083365;28;45303;-76
2021/10/27 06:08:18;;;;;;;;;0.75;0.75;;;;;11.77;71.43;102085.53;5065634;28;45420;-77
2021/10/27 06:10:44;;;;;;;;;0.25;0.25;;;;;11.85;71.39;102098.78;5066098;28;48462;-74
2021/10/27 06:13:12;;;;;;;;;0.00;0.00;;;;;11.74;71.31;102071.56;5081560;28;45390;-76
2021/10/27 06:15:38;;;;;;;;;0.75;0.75;;;;;11.91;71.42;102095.44;5084320;28;45255;-76
2021/10/27 06:18:03;;;;;;;;;0.00;0.00;;;;;11.96;71.21;102096.44;5065623;28;45469;-79
2021/10/27 06:20:29;;;;;;;;;0.00;0.00;;;;;11.98;70.84;102099.97;5084427;28;45424;-77
2021/10/27 06:22:56;;;;;;;;;1.75;0.75;;;;;11.72;70.87;102057.56;5083282;28;45247;-76
2021/10/27 06:25:22;;;;;;;;;0.75;0.00;;;;;11.90;71.05;102084.13;5083726;28;45311;-76
2021/10/27 06:27:51;;;;;;;;;0.00;0.00;;;;;11.92;71.20;102086.78;5083947;28;45497;-76
2021/10/27 06:30:27;;;;;;;;;0.50;0.50;;;;;12.00;70.98;102100.00;5083454;28;46169;-77
2021/10/27 06:35:34;;;;;;;;;0.00;0.00;;;;;11.97;70.75;102090.38;5083592;28;45453;-77
2021/10/27 06:48:55;;;;;;;;;0.75;0.75;;;;;11.85;70.82;102118.78;5083497;28;45190;-74
2021/10/27 06:51:21;;;;;;;;;0.75;0.75;;;;;11.72;71.00;102097.59;5080636;28;46000;-75
2021/10/27 06:53:47;;;;;;;;;0.50;0.50;;;;;11.85;70.84;102113.56;5083860;27;45920;-77
2021/10/27 06:56:13;;;;;;;;;0.00;0.00;;;;;11.90;70.87;102119.78;5102982;27;45248;-76
2021/10/27 07:17:24;;;;;;;;;1.50;0.00;;;;;11.96;70.21;102140.81;5078025;28;45523;-76
2021/10/27 07:19:49;;;;;;;;;0.00;0.00;;;;;11.96;70.03;102143.44;5082158;28;45497;-75
2021/10/27 07:22:15;;;;;;;;;0.00;0.00;;;;;11.98;70.18;102152.16;5081754;28;45595;-77
2021/10/27 07:24:41;;;;;;;;;0.75;0.75;;;;;11.87;70.33;102125.81;5079484;28;45406;-77
2021/10/27 07:27:09;;;;;;;;;0.00;0.00;;;;;12.00;70.15;102140.03;5081181;27;45313;-76
2021/10/27 07:29:35;;;;;;;;;0.00;0.00;;;;;12.01;70.21;102147.03;5082083;28;45360;-76
2021/10/27 07:32:02;;;;;;;;;0.00;0.00;;;;;12.08;70.01;102150.72;5082453;28;45340;-77
2021/10/27 07:34:33;;;;;;;;;1.75;0.75;;;;;12.00;70.08;102132.22;5078350;27;45716;-78
2021/10/27 07:40:07;;;;;;;;;0.75;0.75;;;;;12.19;69.67;102168.38;5081870;28;45458;-77
2021/10/27 07:42:39;;;;;;;;;2.00;2.00;;;;;12.10;69.92;102146.41;5068812;28;46041;-78
2021/10/27 07:45:05;;;;;;;;;0.00;0.00;;;;;12.15;69.62;102149.13;5084006;27;45433;-77
2021/10/27 07:47:30;;;;;;;;;3.00;0.25;;;;;12.28;69.61;102168.59;5085168;27;45441;-77
2021/10/27 07:49:56;;;;;;;;;1.00;0.50;;;;;12.36;69.35;102182.72;5066875;28;45445;-77
2021/10/27 07:52:21;;;;;;;;;0.75;0.75;;;;;12.42;69.32;102176.78;5081432;28;45174;-79
2021/10/27 07:54:47;;;;;;;;;2.00;2.00;;;;;11.85;69.25;102074.44;5047934;28;45228;-79
2021/10/27 07:57:14;;;;;;;;;0.00;0.00;;;;;12.53;69.10;102169.19;5078742;28;45454;-78
2021/10/27 07:59:39;;;;;;;;;0.00;0.00;;;;;12.58;68.86;102178.00;5080556;28;45338;-79
2021/10/27 08:02:05;;;;;;;;;1.75;0.25;;;;;12.58;69.05;102164.06;5081772;28;46014;-78
2021/10/27 08:04:34;;;;;;;;;1.00;0.50;;;;;12.52;68.83;102159.56;5065429;28;45387;-78
2021/10/27 08:07:00;;;;;;;;;0.50;0.00;;;;;12.63;68.81;102171.19;5080621;28;45406;-78
2021/10/27 08:09:26;;;;;;;;;2.75;1.50;;;;;12.78;68.40;102188.06;5079879;28;45389;-77
2021/10/27 08:11:51;;;;;;;;;0.25;0.25;;;;;12.83;68.37;102186.41;5081987;27;45460;-78
2021/10/27 08:14:16;;;;;;;;;0.00;0.00;;;;;12.88;68.28;102182.19;5096104;27;45223;-78
2021/10/27 08:16:42;;;;;;;;;2.50;1.00;;;;;12.93;68.30;102185.75;5063703;28;45368;-77
2021/10/27 08:19:08;;;;;;;;;1.00;0.00;;;;;12.86;68.25;102160.34;5061957;28;45592;-77
2021/10/27 08:21:33;;;;;;;;;0.00;0.00;;;;;12.92;67.89;102157.88;5064808;28;47303;-77
2021/10/27 08:23:59;;;;;;;;;1.00;0.00;;;;;13.09;67.91;102175.66;5080407;28;45513;-81
2021/10/27 08:26:26;;;;;;;;;2.00;1.50;;;;;13.00;67.60;102144.09;5080993;28;45337;-78
2021/10/27 08:28:55;;;;;;;;;0.00;0.00;;;;;13.01;67.31;102136.28;5081182;28;45389;-80
2021/10/27 08:31:32;;;;;;;;;0.00;0.00;;;;;13.28;67.23;102165.56;5083762;27;46807;-79
2021/10/27 08:36:24;;;;;;;;;1.00;1.00;;;;;13.30;66.78;102153.41;5080908;28;45488;-78
2021/10/27 08:38:51;;;;;;;;;1.00;1.00;;;;;13.26;66.85;102141.13;5077720;28;45394;-78
2021/10/27 08:41:17;;;;;;;;;0.00;0.00;;;;;13.26;66.91;102141.13;5070403;28;46346;-78
2021/10/27 08:43:42;;;;;;;;;2.00;0.00;;;;;13.39;66.89;102161.41;5080797;28;45478;-78
2021/10/27 08:46:11;;;;;;;;;1.00;0.25;;;;;13.36;66.77;102134.34;5079963;28;45429;-78
2021/10/27 08:48:38;;;;;;;;;2.25;1.00;;;;;13.49;66.47;102144.22;5078098;28;45512;-78
2021/10/27 08:51:08;;;;;;;;;1.00;1.00;;;;;13.37;66.32;102112.56;5048833;28;47298;-78
2021/10/27 08:53:35;;;;;;;;;1.25;1.25;;;;;13.76;66.08;102163.91;5081431;28;45451;-78
2021/10/27 08:56:04;;;;;;;;;0.00;0.00;;;;;13.79;66.13;102158.72;5081678;28;45454;-76
2021/10/27 08:58:39;;;;;;;;;0.75;0.75;;;;;13.96;65.99;102167.75;5080401;28;45448;-78
2021/10/27 09:01:13;;;;;;;;;1.00;1.00;;;;;14.04;65.51;102164.41;5080875;28;46031;-78
2021/10/27 09:07:09;;;;;;;;;0.00;0.00;;;;;13.96;65.46;102134.56;5067983;28;45489;-79
2021/10/27 09:38:40;;;;;;;;;1.00;1.00;;;;;14.62;63.04;102125.09;5080423;28;45307;-76
2021/10/27 09:47:13;;;;;;;;;2.25;2.25;;;;;14.72;62.91;102145.31;5070045;28;45551;-76
2021/10/27 10:06:24;;;;;;;;;2.00;2.00;;;;;14.57;63.13;102159.09;5074393;28;45428;-77
2021/10/27 10:08:51;;;;;;;;;1.00;1.00;;;;;14.56;63.18;102134.66;5075480;28;45404;-76
2021/10/27 10:11:18;;;;;;;;;0.50;0.50;;;;;14.81;62.89;102157.72;5073202;28;45882;-77
2021/10/27 10:13:45;;;;;;;;;1.00;1.00;;;;;14.74;62.72;102145.34;5082810;27;45421;-79
2021/10/27 10:16:12;;;;;;;;;3.00;3.00;;;;;14.74;62.81;102161.06;5076672;28;45785;-75
2021/10/27 10:18:39;;;;;;;;;2.00;0.75;;;;;14.72;62.87;102160.16;5082055;28;46219;-75
2021/10/27 10:21:06;;;;;;;;;2.25;2.25;;;;;14.55;63.04;102125.00;5082974;28;45207;-75
2021/10/27 10:23:31;;;;;;;;;1.00;1.00;;;;;14.76;62.55;102148.88;5074123;28;45392;-78
2021/10/27 10:26:02;;;;;;;;;0.50;0.50;;;;;14.84;62.75;102163.00;5073743;28;45370;-76
2021/10/27 10:28:37;;;;;;;;;1.50;1.00;;;;;14.85;62.64;102159.50;5082876;28;46614;-76
2021/10/27 10:31:04;;;;;;;;;2.00;2.00;;;;;14.76;62.75;102133.16;5082603;28;45350;-77
2021/10/27 10:33:46;;;;;;;;;1.75;1.50;;;;;14.94;62.62;102159.66;5082669;28;45374;-78
2021/10/27 10:36:20;;;;;;;;;2.50;1.25;;;;;14.97;62.54;102169.28;5083451;28;45296;-78
2021/10/27 10:44:48;;;;;;;;;1.00;1.00;;;;;14.69;62.52;102145.28;5082693;28;45437;-80
2021/10/27 11:01:36;;;;;;;;;2.50;2.25;;;;;14.79;62.87;102147.22;5075095;28;45926;-80
2021/10/27 11:38:14;;;;;;;;;0.50;0.00;;;;;14.97;62.54;102082.75;5076761;28;45314;-75
2021/10/27 11:40:48;;;;;;;;;1.75;1.00;;;;;15.13;62.62;102101.31;5081340;28;45394;-75
2021/10/27 11:46:27;;;;;;;;;2.50;1.00;;;;;15.17;62.17;102074.25;5078117;28;45340;-75
2021/10/27 11:50:59;;;;;;;;;0.25;0.25;;;;;15.22;61.58;102048.94;5081738;28;45351;-76
2021/10/27 11:53:27;;;;;;;;;2.00;0.00;;;;;15.41;61.15;102080.63;5081206;28;45493;-75
2021/10/27 11:55:54;;;;;;;;;0.75;0.75;;;;;15.40;60.85;102063.97;5054078;28;47937;-77
2021/10/27 11:58:23;;;;;;;;;1.75;0.75;;;;;15.53;60.98;102072.84;5079418;28;45402;-77
2021/10/27 12:00:58;;;;;;;;;0.00;0.00;;;;;15.45;61.05;102046.56;5081667;28;45294;-78
2021/10/27 12:03:37;;;;;;;;;0.00;0.00;;;;;15.68;60.19;102085.22;5077197;28;45429;-78
2021/10/27 12:06:07;;;;;;;;;0.00;0.00;;;;;15.64;60.58;102067.69;5076154;27;45500;-78
2021/10/27 12:11:19;;;;;;;;;0.00;0.00;;;;;15.71;60.01;102042.38;5079922;28;45535;-77
2021/10/27 12:13:50;;;;;;;;;0.00;0.00;;;;;15.83;59.48;102047.72;5080976;28;45336;-78
2021/10/27 12:16:30;;;;;;;;;0.00;0.00;;;;;15.81;59.73;102033.69;5065262;28;45603;-79
2021/10/27 12:18:57;;;;;;;;;2.50;0.00;;;;;15.96;59.56;102048.72;5065869;28;45375;-78
2021/10/27 12:21:26;;;;;;;;;0.00;0.00;;;;;15.79;59.76;102014.44;5081082;28;45311;-78
2021/10/27 12:23:51;;;;;;;;;0.00;0.00;;;;;15.92;59.29;102039.03;5081688;28;45451;-79
2021/10/27 12:26:18;;;;;;;;;0.00;0.00;;;;;16.00;59.09;102041.75;5081036;28;46056;-77
2021/10/27 12:28:44;;;;;;;;;1.00;0.00;;;;;16.05;58.75;102041.78;5080416;28;45267;-79
2021/10/27 12:31:16;;;;;;;;;0.00;0.00;;;;;15.79;58.98;101989.94;5080574;28;45329;-80
2021/10/27 12:33:44;;;;;;;;;0.75;0.00;;;;;15.98;58.80;102014.59;5075776;28;45452;-77
2021/10/27 12:36:34;;;;;;;;;0.50;0.50;;;;;16.13;58.86;102024.31;5061733;28;47518;-77
2021/10/27 12:41:45;;;;;;;;;0.00;0.00;;;;;15.96;58.05;101975.19;5066195;28;45311;-76
2021/10/27 12:44:25;;;;;;;;;0.00;0.00;;;;;16.25;58.11;102007.75;5076632;28;45414;-78
2021/10/27 12:47:07;;;;;;;;;2.00;1.00;;;;;16.27;58.19;101990.25;5076587;28;46218;-77
2021/10/27 12:49:32;;;;;;;;;0.00;0.00;;;;;16.39;57.96;102004.31;5070584;28;45334;-77
2021/10/27 12:51:58;;;;;;;;;0.00;0.00;;;;;16.31;57.64;101980.63;5050349;28;45382;-77
2021/10/27 12:54:28;;;;;;;;;0.00;0.00;;;;;16.43;57.74;102009.59;5062817;28;45299;-77
2021/10/27 12:57:04;;;;;;;;;0.00;0.00;;;;;16.12;57.62;101943.78;5077227;28;47933;-79
2021/10/27 12:59:31;;;;;;;;;0.00;0.00;;;;;16.17;57.71;101951.69;5079804;28;45408;-79
2021/10/27 13:02:25;;;;;;;;;0.00;0.00;;;;;16.27;57.96;101979.75;5063666;28;45689;-78
2021/10/27 13:04:59;;;;;;;;;0.75;0.75;;;;;16.16;57.47;101953.41;5063452;28;45487;-80
2021/10/27 13:07:31;;;;;;;;;0.00;0.00;;;;;16.39;57.57;101989.44;5080298;28;45513;-79
2021/10/27 13:10:41;;;;;;;;;0.00;0.00;;;;;16.41;57.98;101981.53;5058201;28;45829;-77
2021/10/27 13:15:33;;;;;;;;;0.00;0.00;;;;;16.25;57.97;101938.56;5081486;28;45274;-77
2021/10/27 13:18:12;;;;;;;;;0.00;0.00;;;;;16.31;58.04;101944.72;5080825;28;46176;-77
2021/10/27 13:23:43;;;;;;;;;0.00;0.00;;;;;16.16;58.19;101928.88;5084851;28;45456;-77
2021/10/27 13:31:38;;;;;;;;;0.00;0.00;;;;;16.29;58.24;101916.69;5076822;28;45386;-77
2021/10/27 13:34:04;;;;;;;;;0.00;0.00;;;;;16.34;58.42;101918.47;5082929;28;45282;-77
2021/10/27 13:36:30;;;;;;;;;0.00;0.00;;;;;16.33;59.24;101914.06;5082397;28;45357;-77
2021/10/27 13:38:59;;;;;;;;;0.00;0.00;;;;;16.53;58.49;101946.53;5078806;28;45393;-77
2021/10/27 13:41:25;;;;;;;;;0.25;0.00;;;;;16.43;58.26;101930.75;5073110;28;45294;-77
2021/10/27 13:43:54;;;;;;;;;0.00;0.00;;;;;16.52;57.99;101943.03;5084465;28;45246;-77
2021/10/27 13:46:33;;;;;;;;;0.75;0.00;;;;;16.32;57.86;101920.19;5084290;28;45471;-77
2021/10/27 13:49:20;;;;;;;;;0.00;0.00;;;;;16.02;58.22;101869.28;5079406;28;45898;-78
2021/10/27 14:08:15;;;;;;;;;0.00;0.00;;;;;16.65;58.29;101912.41;5083873;28;45354;-77
2021/10/27 14:10:45;;;;;;;;;0.00;0.00;;;;;16.45;57.91;101873.81;5081301;28;46291;-77
2021/10/27 14:59:03;;;;;;;;;0.00;0.00;;;;;17.66;55.07;101871.16;5079481;28;45443;-77
2021/10/27 15:20:45;;;;;;;;;0.00;0.00;;;;;17.55;55.14;101863.31;5082303;28;45369;-78
2021/10/27 15:28:38;;;;;;;;;0.00;0.00;;;;;16.98;55.49;101796.72;5065282;28;45305;-78
2021/10/27 15:31:21;;;;;;;;;0.00;0.00;;;;;17.06;55.68;101823.03;5078277;28;45303;-77
2021/10/27 15:34:02;;;;;;;;;0.00;0.00;;;;;17.28;55.54;101860.75;5071111;27;45431;-81
2021/10/27 15:52:33;;;;;;;;;0.00;0.00;;;;;16.69;55.96;101824.78;5080360;28;45427;-79
2021/10/27 15:54:59;;;;;;;;;0.00;0.00;;;;;16.65;56.41;101827.38;5079078;28;46283;-77
2021/10/27 15:57:24;;;;;;;;;0.00;0.00;;;;;16.73;56.59;101849.31;5078925;28;46172;-77
2021/10/27 15:59:54;;;;;;;;;0.00;0.00;;;;;16.53;56.44;101823.88;5079621;28;45541;-77
2021/10/27 16:02:20;;;;;;;;;0.00;0.00;;;;;16.67;56.04;101847.56;5079775;28;45534;-76